createdAt,value
2022-09-30T00:02:21.585Z,22.00
2022-09-30T00:04:49.821Z,21.60
2022-09-30T00:07:17.169Z,22.07
2022-09-30T00:09:44.720Z,21.00
2022-09-30T00:12:12.093Z,21.07
2022-09-30T00:14:39.445Z,21.47
2022-09-30T00:17:06.944Z,20.50
2022-09-30T00:19:35.614Z,21.87
2022-09-30T00:22:02.953Z,20.90
2022-09-30T00:24:30.669Z,20.83
2022-09-30T00:26:58.054Z,22.10
2022-09-30T00:29:25.428Z,24.13
2022-09-30T00:31:52.813Z,23.00
2022-09-30T00:34:20.552Z,24.30
2022-09-30T00:36:50.874Z,25.03
2022-09-30T00:39:20.885Z,25.33
2022-09-30T00:41:51.915Z,26.23
2022-09-30T00:44:50.559Z,25.67
2022-09-30T00:47:38.558Z,25.93
2022-09-30T00:50:13.285Z,24.90
2022-09-30T00:52:42.213Z,25.07
2022-09-30T00:55:13.977Z,22.87
2022-09-30T00:57:41.613Z,23.60
2022-09-30T01:00:09.821Z,23.53
2022-09-30T01:02:37.291Z,24.60
2022-09-30T01:05:05.254Z,24.87
2022-09-30T01:07:32.685Z,25.93
2022-09-30T01:10:02.002Z,24.80
2022-09-30T01:12:29.899Z,25.80
2022-09-30T01:14:57.877Z,25.63
2022-09-30T01:17:35.805Z,25.27
2022-09-30T01:20:41.390Z,25.40
2022-09-30T01:23:26.657Z,25.00
2022-09-30T01:26:05.865Z,24.53
2022-09-30T01:29:08.805Z,25.30
2022-09-30T01:31:48.871Z,23.90
2022-09-30T01:34:20.403Z,23.97
2022-09-30T01:37:01.167Z,23.93
2022-09-30T01:39:34.776Z,24.43
2022-09-30T01:42:12.580Z,24.17
2022-09-30T01:44:46.033Z,25.40
2022-09-30T01:47:18.544Z,25.50
2022-09-30T01:49:48.541Z,26.57
2022-09-30T01:52:17.676Z,25.83
2022-09-30T01:54:48.712Z,25.90
2022-09-30T01:57:20.976Z,26.07
2022-09-30T01:59:52.534Z,27.17
2022-09-30T02:02:22.851Z,26.80
2022-09-30T02:04:53.355Z,26.83
2022-09-30T02:07:24.998Z,25.33
2022-09-30T02:09:56.341Z,25.10
2022-09-30T02:12:27.927Z,26.63
2022-09-30T02:15:00.102Z,25.67
2022-09-30T02:17:31.117Z,24.77
2022-09-30T02:20:01.205Z,25.67
2022-09-30T02:22:32.172Z,24.53
2022-09-30T02:25:02.862Z,23.53
2022-09-30T02:27:34.614Z,22.43
2022-09-30T02:30:03.889Z,23.67
2022-09-30T02:32:36.329Z,24.57
2022-09-30T02:35:07.002Z,22.83
2022-09-30T02:37:37.077Z,22.90
2022-09-30T02:40:07.921Z,22.53
2022-09-30T02:42:35.512Z,22.37
2022-09-30T02:45:08.496Z,23.37
2022-09-30T02:47:49.283Z,22.33
2022-09-30T02:50:20.967Z,22.30
2022-09-30T02:52:54.374Z,22.50
2022-09-30T02:55:27.945Z,22.93
2022-09-30T02:58:00.393Z,22.37
2022-09-30T03:00:28.022Z,22.13
2022-09-30T03:02:59.377Z,22.13
2022-09-30T03:05:28.312Z,21.90
2022-09-30T03:07:56.397Z,21.43
2022-09-30T03:10:23.929Z,21.90
2022-09-30T03:13:07.024Z,22.67
2022-09-30T03:15:45.105Z,22.40
2022-09-30T03:18:24.677Z,22.67
2022-09-30T03:21:05.283Z,21.70
2022-09-30T03:23:43.425Z,22.17
2022-09-30T03:26:18.237Z,22.17
2022-09-30T03:28:53.108Z,22.27
2022-09-30T03:31:28.080Z,21.53
2022-09-30T03:34:02.637Z,21.47
2022-09-30T03:36:36.226Z,20.03
2022-09-30T03:39:08.657Z,21.20
2022-09-30T03:41:40.381Z,21.10
2022-09-30T03:44:11.495Z,22.93
2022-09-30T03:46:41.999Z,23.40
2022-09-30T03:49:13.221Z,24.80
2022-09-30T03:51:41.001Z,23.13
2022-09-30T03:54:10.014Z,22.93
2022-09-30T03:56:43.122Z,22.73
2022-09-30T03:59:12.797Z,22.17
2022-09-30T04:01:40.940Z,21.87
2022-09-30T04:04:08.337Z,20.13
2022-09-30T04:06:37.186Z,20.47
2022-09-30T04:09:04.863Z,20.70
2022-09-30T04:11:32.332Z,21.50
2022-09-30T04:14:01.362Z,20.40
2022-09-30T04:16:30.303Z,20.07
2022-09-30T04:18:57.793Z,21.57
2022-09-30T04:21:26.002Z,22.70
2022-09-30T04:23:54.666Z,22.57
2022-09-30T04:26:22.946Z,19.83
2022-09-30T04:28:50.385Z,23.03
2022-09-30T04:31:19.986Z,22.40
2022-09-30T04:33:47.446Z,22.07
2022-09-30T04:36:14.796Z,22.73
2022-09-30T04:38:42.279Z,22.53
2022-09-30T04:41:16.153Z,22.00
2022-09-30T04:43:45.286Z,23.67
2022-09-30T04:46:12.790Z,23.57
2022-09-30T04:48:40.256Z,22.70
2022-09-30T04:51:07.629Z,24.43
2022-09-30T04:53:34.982Z,23.53
2022-09-30T04:56:02.798Z,25.60
2022-09-30T04:58:36.714Z,23.87
2022-09-30T05:01:05.409Z,24.63
2022-09-30T05:03:32.877Z,25.47
2022-09-30T05:06:00.360Z,24.40
2022-09-30T05:08:27.878Z,23.93
2022-09-30T05:10:57.187Z,23.10
2022-09-30T05:13:25.521Z,24.07
2022-09-30T05:15:54.391Z,24.83
2022-09-30T05:18:22.093Z,24.23
2022-09-30T05:20:52.833Z,23.87
2022-09-30T05:23:20.836Z,25.37
2022-09-30T05:25:48.561Z,24.57
2022-09-30T05:28:15.949Z,24.37
2022-09-30T05:30:44.357Z,24.13
2022-09-30T05:33:13.673Z,25.53
2022-09-30T05:35:41.543Z,24.40
2022-09-30T05:38:09.640Z,24.73
2022-09-30T05:40:38.415Z,23.00
2022-09-30T05:43:06.481Z,24.83
2022-09-30T05:45:34.336Z,25.53
2022-09-30T05:48:02.836Z,25.37
2022-09-30T05:50:31.698Z,23.07
2022-09-30T05:52:59.093Z,24.37
2022-09-30T05:55:26.542Z,24.53
2022-09-30T05:57:53.897Z,23.23
2022-09-30T06:00:21.441Z,23.77
2022-09-30T06:02:52.537Z,23.97
2022-09-30T06:05:21.983Z,26.07
2022-09-30T06:07:50.981Z,26.57
2022-09-30T06:10:18.489Z,23.83
2022-09-30T06:12:45.931Z,26.67
2022-09-30T06:15:13.277Z,28.23
2022-09-30T06:17:42.406Z,27.30
2022-09-30T06:20:10.689Z,27.20
2022-09-30T06:22:38.069Z,28.30
2022-09-30T06:25:07.655Z,29.03
2022-09-30T06:27:35.275Z,26.63
2022-09-30T06:30:03.099Z,28.10
2022-09-30T06:32:30.574Z,28.03
2022-09-30T06:34:57.917Z,28.50
2022-09-30T06:37:25.965Z,29.97
2022-09-30T06:39:53.366Z,30.60
2022-09-30T06:42:25.043Z,31.53
2022-09-30T06:44:53.617Z,31.50
2022-09-30T06:47:25.584Z,28.30
2022-09-30T06:49:58.357Z,28.93
2022-09-30T06:52:26.437Z,27.50
2022-09-30T06:54:56.466Z,25.83
2022-09-30T06:57:27.624Z,23.37
2022-09-30T06:59:56.077Z,24.17
2022-09-30T07:02:23.602Z,23.10
2022-09-30T07:04:51.017Z,21.90
2022-09-30T07:07:22.032Z,22.17
2022-09-30T07:09:49.501Z,21.17
2022-09-30T07:12:17.238Z,21.93
2022-09-30T07:14:46.104Z,21.63
2022-09-30T07:17:13.493Z,22.50
2022-09-30T07:19:40.929Z,22.23
2022-09-30T07:22:28.112Z,22.37
2022-09-30T07:24:55.782Z,22.60
2022-09-30T07:27:23.204Z,23.10
2022-09-30T07:32:39.372Z,23.93
2022-09-30T07:35:07.258Z,24.33
2022-09-30T07:37:36.083Z,24.73
2022-09-30T07:40:05.129Z,24.67
2022-09-30T07:42:33.649Z,24.70
2022-09-30T07:45:02.414Z,25.07
2022-09-30T07:47:30.021Z,25.10
2022-09-30T07:49:57.644Z,24.23
2022-09-30T07:52:25.280Z,24.10
2022-09-30T07:54:52.663Z,23.90
2022-09-30T07:57:21.555Z,23.70
2022-09-30T07:59:48.980Z,23.10
2022-09-30T08:02:19.437Z,23.50
2022-09-30T08:04:47.337Z,23.40
2022-09-30T08:07:16.606Z,23.10
2022-09-30T08:09:44.574Z,22.40
2022-09-30T08:12:12.065Z,22.40
2022-09-30T08:14:39.760Z,22.27
2022-09-30T08:17:07.147Z,22.70
2022-09-30T08:19:35.950Z,23.10
2022-09-30T08:24:30.707Z,22.90
2022-09-30T08:26:58.156Z,23.07
2022-09-30T08:29:50.039Z,23.87
2022-09-30T08:32:13.008Z,22.70
2022-09-30T08:34:41.833Z,22.80
2022-09-30T08:37:10.130Z,22.03
2022-09-30T08:39:38.011Z,22.63
2022-09-30T08:42:36.238Z,23.67
2022-09-30T08:45:11.563Z,23.43
2022-09-30T08:47:47.482Z,22.67
2022-09-30T08:50:21.015Z,22.87
2022-09-30T08:52:51.643Z,23.57
2022-09-30T08:55:22.158Z,23.33
2022-09-30T08:57:50.018Z,22.90
2022-09-30T09:00:18.982Z,22.80
2022-09-30T09:02:49.983Z,22.83
2022-09-30T09:05:27.069Z,22.97
2022-09-30T09:08:02.476Z,22.07
2022-09-30T09:10:37.959Z,24.13
2022-09-30T09:13:12.165Z,23.17
2022-09-30T09:15:48.503Z,22.93
2022-09-30T09:18:33.853Z,23.37
2022-09-30T09:21:13.021Z,23.33
2022-09-30T09:23:40.519Z,24.13
2022-09-30T09:26:10.109Z,24.03
2022-09-30T09:28:41.501Z,23.40
2022-09-30T09:31:14.399Z,24.20
2022-09-30T09:33:41.991Z,23.63
2022-09-30T09:36:25.148Z,24.20
2022-09-30T09:39:10.737Z,23.90
2022-09-30T09:41:44.658Z,24.17
2022-09-30T09:44:20.328Z,23.90
2022-09-30T09:46:50.637Z,24.10
2022-09-30T09:49:29.863Z,24.20
2022-09-30T09:52:30.869Z,24.30
2022-09-30T09:55:00.738Z,24.30
2022-09-30T09:57:32.125Z,23.97
2022-09-30T10:00:20.785Z,24.93
2022-09-30T10:03:03.829Z,24.30
2022-09-30T10:05:32.359Z,24.03
2022-09-30T10:08:11.638Z,24.00
2022-09-30T10:10:48.636Z,24.17
2022-09-30T10:13:18.562Z,24.20
2022-09-30T10:15:46.378Z,25.40
2022-09-30T10:18:19.086Z,25.60
2022-09-30T10:20:52.971Z,25.53
2022-09-30T10:23:22.357Z,25.00
2022-09-30T10:25:59.813Z,25.37
2022-09-30T10:28:29.695Z,25.70
2022-09-30T10:31:00.230Z,25.93
2022-09-30T10:33:31.178Z,25.87
2022-09-30T10:36:08.654Z,26.33
2022-09-30T10:38:36.818Z,25.73
2022-09-30T10:41:06.345Z,26.20
2022-09-30T10:43:42.188Z,25.57
2022-09-30T10:46:27.096Z,26.40
2022-09-30T10:48:57.070Z,25.47
2022-09-30T10:51:30.890Z,25.70
2022-09-30T10:53:58.933Z,27.00
2022-09-30T10:56:37.789Z,26.00
2022-09-30T10:59:06.620Z,27.23
2022-09-30T11:01:37.641Z,25.50
2022-09-30T11:04:08.378Z,26.27
2022-09-30T11:06:41.747Z,25.83
2022-09-30T11:09:14.550Z,25.30
2022-09-30T11:11:47.086Z,25.53
2022-09-30T11:14:28.290Z,25.63
2022-09-30T11:17:03.945Z,25.50
2022-09-30T11:19:33.433Z,26.20
2022-09-30T11:22:21.462Z,26.00
2022-09-30T11:24:51.643Z,25.73
2022-09-30T11:27:28.674Z,26.27
2022-09-30T11:30:05.127Z,25.47
2022-09-30T11:32:41.663Z,26.13
2022-09-30T11:35:23.061Z,25.37
2022-09-30T11:38:05.906Z,25.60
2022-09-30T11:40:39.689Z,26.17
2022-09-30T11:43:23.425Z,26.57
2022-09-30T11:46:03.106Z,25.33
2022-09-30T11:48:39.894Z,25.47
2022-09-30T11:51:15.342Z,24.50
2022-09-30T11:53:48.535Z,24.83
2022-09-30T11:56:28.672Z,25.83
2022-09-30T11:59:01.578Z,24.93
2022-09-30T12:01:33.106Z,24.30
2022-09-30T12:04:05.296Z,25.30
2022-09-30T12:06:35.966Z,25.03
2022-09-30T12:09:09.526Z,25.47
2022-09-30T12:11:42.286Z,23.63
2022-09-30T12:14:16.718Z,23.97
2022-09-30T12:16:46.292Z,24.00
2022-09-30T12:19:17.914Z,23.97
2022-09-30T12:21:53.103Z,23.40
2022-09-30T12:24:25.371Z,24.43
2022-09-30T12:26:52.834Z,24.50
2022-09-30T12:29:41.505Z,23.50
2022-09-30T12:32:25.531Z,23.90
2022-09-30T12:35:01.952Z,23.13
2022-09-30T12:37:49.914Z,23.97
2022-09-30T12:40:42.840Z,23.00
2022-09-30T12:43:42.486Z,22.83
2022-09-30T12:46:15.326Z,22.50
2022-09-30T12:48:45.216Z,22.83
2022-09-30T12:51:22.723Z,23.23
2022-09-30T12:53:52.492Z,23.00
2022-09-30T12:56:20.156Z,22.17
2022-09-30T12:58:49.602Z,22.53
2022-09-30T13:01:20.261Z,22.50
2022-09-30T13:03:51.807Z,23.30
2022-09-30T13:06:21.181Z,22.93
2022-09-30T13:09:18.883Z,22.00
2022-09-30T13:11:48.107Z,22.93
2022-09-30T13:14:28.541Z,22.60
2022-09-30T13:17:36.043Z,23.30
2022-09-30T13:20:44.833Z,22.60
2022-09-30T13:23:37.376Z,22.80
2022-09-30T13:26:07.093Z,22.80
2022-09-30T13:28:39.434Z,22.60
2022-09-30T13:31:18.864Z,22.77
2022-09-30T13:33:48.233Z,22.07
2022-09-30T13:36:20.390Z,22.40
2022-09-30T13:39:18.401Z,23.20
2022-09-30T13:41:50.147Z,22.53
2022-09-30T13:44:20.959Z,23.17
2022-09-30T13:46:50.853Z,22.70
2022-09-30T13:49:22.519Z,22.50
2022-09-30T13:51:50.026Z,22.50
2022-09-30T13:54:27.342Z,22.67
2022-09-30T13:56:55.412Z,22.73
2022-09-30T13:59:32.695Z,23.10
2022-09-30T14:02:22.495Z,22.70
2022-09-30T14:05:06.682Z,22.60
2022-09-30T14:07:43.029Z,21.83
2022-09-30T14:10:21.469Z,22.40
2022-09-30T14:13:06.399Z,22.57
2022-09-30T14:15:47.004Z,22.87
2022-09-30T14:18:51.614Z,22.77
2022-09-30T14:21:29.033Z,22.40
2022-09-30T14:24:01.186Z,22.53
2022-09-30T14:26:42.605Z,22.00
2022-09-30T14:29:16.853Z,23.33
2022-09-30T14:31:45.583Z,22.63
2022-09-30T14:34:14.766Z,22.20
2022-09-30T14:36:42.451Z,22.57
2022-09-30T14:39:15.922Z,22.43
2022-09-30T14:41:50.299Z,22.90
2022-09-30T14:44:19.728Z,22.73
2022-09-30T14:46:49.256Z,22.67
2022-09-30T14:49:19.401Z,22.53
2022-09-30T14:51:48.422Z,23.00
2022-09-30T14:54:17.802Z,23.07
2022-09-30T14:56:45.315Z,22.93
2022-09-30T14:59:18.756Z,22.03
2022-09-30T15:01:47.880Z,22.70
2022-09-30T15:04:17.398Z,22.83
2022-09-30T15:06:47.574Z,23.13
2022-09-30T15:09:18.161Z,22.73
2022-09-30T15:11:46.725Z,22.70
2022-09-30T15:14:18.810Z,22.57
2022-09-30T15:16:47.988Z,22.43
2022-09-30T15:19:19.465Z,22.53
2022-09-30T15:21:48.968Z,22.23
2022-09-30T15:24:17.287Z,22.27
2022-09-30T15:26:46.897Z,22.30
2022-09-30T15:29:16.299Z,21.80
2022-09-30T15:31:46.086Z,21.97
2022-09-30T15:34:19.221Z,21.93
2022-09-30T15:36:56.241Z,21.77
2022-09-30T15:39:25.337Z,21.67
2022-09-30T15:41:52.782Z,20.77
2022-09-30T15:44:38.087Z,20.93
2022-09-30T15:47:07.260Z,20.80
2022-09-30T15:49:47.298Z,20.73
2022-09-30T15:52:22.313Z,20.83
2022-09-30T15:54:49.710Z,21.07
2022-09-30T15:57:40.109Z,21.20
2022-09-30T16:00:37.710Z,21.40
2022-09-30T16:03:26.299Z,21.57
2022-09-30T16:05:54.408Z,20.93
2022-09-30T16:08:24.872Z,20.90
2022-09-30T16:10:53.885Z,20.57
2022-09-30T16:13:25.061Z,20.73
2022-09-30T16:15:55.017Z,20.73
2022-09-30T16:18:25.621Z,20.53
2022-09-30T16:21:00.676Z,20.67
2022-09-30T16:23:30.691Z,20.80
2022-09-30T16:26:20.669Z,20.80
2022-09-30T16:28:48.287Z,20.60
2022-09-30T16:31:17.183Z,20.80
2022-09-30T16:33:45.471Z,20.37
2022-09-30T16:36:14.574Z,20.67
2022-09-30T16:38:42.716Z,21.50
2022-09-30T16:41:12.412Z,20.50
2022-09-30T16:43:40.051Z,19.67
2022-09-30T16:46:07.987Z,19.50
2022-09-30T16:48:38.253Z,20.33
2022-09-30T16:51:07.956Z,20.60
2022-09-30T16:53:35.415Z,21.27
2022-09-30T16:56:02.857Z,19.77
2022-09-30T16:58:31.351Z,19.93
2022-09-30T17:01:00.289Z,19.80
2022-09-30T17:03:28.103Z,19.73
2022-09-30T17:05:56.904Z,19.87
2022-09-30T17:08:24.657Z,20.47
2022-09-30T17:10:52.103Z,19.70
2022-09-30T17:13:20.130Z,19.60
2022-09-30T17:15:52.161Z,19.80
2022-09-30T17:18:20.284Z,19.17
2022-09-30T17:20:52.522Z,19.70
2022-09-30T17:23:22.603Z,19.13
2022-09-30T17:25:50.537Z,19.30
2022-09-30T17:28:18.606Z,19.30
2022-09-30T17:30:47.848Z,22.07
2022-09-30T17:33:15.784Z,22.00
2022-09-30T17:35:43.187Z,23.00
2022-09-30T17:38:11.576Z,19.00
2022-09-30T17:40:57.996Z,18.93
2022-09-30T17:43:25.502Z,19.60
2022-09-30T17:45:55.542Z,18.63
2022-09-30T17:48:23.563Z,18.80
2022-09-30T17:50:53.313Z,18.13
2022-09-30T17:53:20.749Z,18.90
2022-09-30T17:56:00.780Z,18.90
2022-09-30T17:58:29.094Z,19.33
2022-09-30T18:00:59.204Z,20.43
2022-09-30T18:03:28.049Z,19.57
2022-09-30T18:05:58.753Z,18.10
2022-09-30T18:08:26.278Z,17.77
2022-09-30T18:10:57.197Z,17.67
2022-09-30T18:13:24.857Z,17.70
2022-09-30T18:15:52.273Z,17.73
2022-09-30T18:18:19.715Z,17.40
2022-09-30T18:20:48.795Z,17.90
2022-09-30T18:23:18.733Z,17.33
2022-09-30T18:25:46.595Z,17.67
2022-09-30T18:28:15.356Z,17.70
2022-09-30T18:30:43.721Z,17.43
2022-09-30T18:33:11.521Z,18.03
2022-09-30T18:35:40.190Z,17.33
2022-09-30T18:38:08.985Z,17.47
2022-09-30T18:40:36.437Z,17.00
2022-09-30T18:43:05.357Z,17.37
2022-09-30T18:45:35.592Z,17.13
2022-09-30T18:48:03.237Z,17.10
2022-09-30T18:50:32.640Z,17.23
2022-09-30T18:53:04.596Z,17.03
2022-09-30T18:55:35.000Z,17.47
2022-09-30T18:58:02.378Z,16.50
2022-09-30T19:00:31.063Z,17.60
2022-09-30T19:02:59.846Z,17.27
2022-09-30T19:05:27.460Z,17.47
2022-09-30T19:07:55.193Z,17.13
2022-09-30T19:10:24.271Z,18.07
2022-09-30T19:12:51.906Z,17.47
2022-09-30T19:15:19.485Z,18.30
2022-09-30T19:17:50.035Z,17.70
2022-09-30T19:20:18.860Z,17.87
2022-09-30T19:22:46.733Z,18.07
2022-09-30T19:25:15.001Z,17.80
2022-09-30T19:27:42.732Z,18.07
2022-09-30T19:30:12.655Z,17.90
2022-09-30T19:32:40.101Z,17.90
2022-09-30T19:35:10.272Z,18.33
2022-09-30T19:37:40.482Z,17.70
2022-09-30T19:40:20.906Z,18.10
2022-09-30T19:42:49.447Z,18.47
2022-09-30T19:45:19.231Z,18.30
2022-09-30T19:47:49.006Z,18.07
2022-09-30T19:50:16.631Z,17.90
2022-09-30T19:52:53.986Z,18.57
2022-09-30T19:55:22.849Z,18.40
2022-09-30T19:57:50.268Z,18.70
2022-09-30T20:00:17.928Z,18.97
2022-09-30T20:02:45.429Z,18.13
2022-09-30T20:05:12.845Z,18.13
2022-09-30T20:07:40.300Z,18.57
2022-09-30T20:10:09.917Z,18.50
2022-09-30T20:12:37.336Z,18.43
2022-09-30T20:15:23.040Z,18.13
2022-09-30T20:17:50.430Z,17.87
2022-09-30T20:20:36.779Z,17.90
2022-09-30T20:23:04.428Z,18.33
2022-09-30T20:25:34.912Z,18.53
2022-09-30T20:28:03.907Z,18.10
2022-09-30T20:30:31.901Z,18.23
2022-09-30T20:32:59.503Z,18.00
2022-09-30T20:35:26.979Z,18.40
2022-09-30T20:37:54.846Z,18.00
2022-09-30T20:40:22.298Z,18.50
2022-09-30T20:42:51.830Z,18.27
2022-09-30T20:45:19.235Z,18.13
2022-09-30T20:47:47.447Z,18.20
2022-09-30T20:50:34.627Z,17.60
2022-09-30T20:53:02.529Z,17.83
2022-09-30T20:55:29.926Z,17.70
2022-09-30T20:57:58.623Z,18.23
2022-09-30T21:00:26.083Z,17.50
2022-09-30T21:02:53.579Z,17.10
2022-09-30T21:05:21.245Z,15.97
2022-09-30T21:07:48.675Z,16.97
2022-09-30T21:10:17.452Z,16.80
2022-09-30T21:12:44.984Z,16.77
2022-09-30T21:15:13.998Z,17.00
2022-09-30T21:17:42.107Z,16.43
2022-09-30T21:20:09.983Z,16.73
2022-09-30T21:22:38.724Z,16.53
2022-09-30T21:25:07.674Z,16.30
2022-09-30T21:27:35.335Z,16.23
2022-09-30T21:30:02.985Z,16.23
2022-09-30T21:32:33.828Z,16.50
2022-09-30T21:35:04.208Z,16.10
2022-09-30T21:37:31.605Z,16.33
2022-09-30T21:39:58.961Z,16.50
2022-09-30T21:42:26.725Z,15.80
2022-09-30T21:44:54.290Z,15.77
2022-09-30T21:47:21.738Z,16.00
2022-09-30T21:49:53.631Z,15.73
2022-09-30T21:52:22.790Z,15.67
2022-09-30T21:54:52.029Z,14.93
2022-09-30T21:57:19.627Z,15.40
2022-09-30T21:59:50.381Z,15.40
2022-09-30T22:02:18.046Z,14.97
2022-09-30T22:04:45.470Z,15.10
2022-09-30T22:07:16.010Z,15.57
2022-09-30T22:09:43.486Z,15.73
2022-09-30T22:12:11.431Z,15.13
2022-09-30T22:14:38.844Z,15.20
2022-09-30T22:17:09.865Z,15.10
2022-09-30T22:19:38.864Z,15.40
2022-09-30T22:22:06.317Z,15.37
2022-09-30T22:24:36.840Z,15.43
2022-09-30T22:27:07.372Z,14.67
2022-09-30T22:29:35.093Z,15.07
2022-09-30T22:32:02.886Z,15.37
2022-09-30T22:34:47.681Z,14.90
2022-09-30T22:37:32.689Z,14.87
2022-09-30T22:40:01.893Z,14.70
2022-09-30T22:42:29.374Z,14.43
2022-09-30T22:44:56.810Z,15.10
2022-09-30T22:47:24.278Z,14.90
2022-09-30T22:49:51.679Z,14.80
2022-09-30T22:52:19.115Z,15.53
2022-09-30T22:54:46.499Z,15.03
2022-09-30T22:57:15.277Z,14.97
2022-09-30T22:59:43.635Z,15.00
2022-09-30T23:02:11.111Z,14.60
2022-09-30T23:04:38.634Z,14.93
2022-09-30T23:07:07.470Z,14.50
2022-09-30T23:09:34.914Z,14.17
2022-09-30T23:12:02.713Z,14.63
2022-09-30T23:14:31.457Z,14.57
2022-09-30T23:16:58.898Z,14.20
2022-09-30T23:19:26.342Z,14.50
2022-09-30T23:21:53.750Z,14.50
2022-09-30T23:24:21.194Z,14.70
2022-09-30T23:26:48.773Z,14.87
2022-09-30T23:29:16.189Z,15.47
2022-09-30T23:31:44.942Z,14.87
2022-09-30T23:34:13.098Z,14.73
2022-09-30T23:36:40.792Z,14.03
2022-09-30T23:39:12.367Z,14.63
2022-09-30T23:41:40.008Z,14.60
2022-09-30T23:44:09.531Z,14.63
2022-09-30T23:46:37.063Z,14.80
2022-09-30T23:49:05.771Z,14.90
2022-09-30T23:51:34.060Z,14.60
2022-09-30T23:54:02.150Z,14.10
2022-09-30T23:56:29.510Z,14.90
2022-09-30T23:58:57.303Z,14.50
